sensor_id;sensor_type;location;lat;lon;timestamp;P1;durP1;ratioP1;P2;durP2;ratioP2
83728;SDS011;73707;56.480;-2.840;2024-03-06T00:00:09;8.98;;;5.88;;
83728;SDS011;73707;56.480;-2.840;2024-03-06T00:02:35;12.50;;;6.47;;
83728;SDS011;73707;56.480;-2.840;2024-03-06T00:05:01;11.82;;;6.68;;
83728;SDS011;73707;56.480;-2.840;2024-03-06T00:07:27;7.95;;;6.07;;
83728;SDS011;73707;56.480;-2.840;2024-03-06T00:09:53;9.32;;;5.68;;
83728;SDS011;73707;56.480;-2.840;2024-03-06T00:12:19;10.35;;;5.28;;
83728;SDS011;73707;56.480;-2.840;2024-03-06T00:14:44;11.27;;;6.25;;
83728;SDS011;73707;56.480;-2.840;2024-03-06T00:17:10;10.65;;;5.32;;
83728;SDS011;73707;56.480;-2.840;2024-03-06T00:19:36;12.80;;;5.80;;
83728;SDS011;73707;56.480;-2.840;2024-03-06T00:22:02;11.45;;;5.65;;
83728;SDS011;73707;56.480;-2.840;2024-03-06T00:24:28;9.05;;;5.82;;
83728;SDS011;73707;56.480;-2.840;2024-03-06T00:26:54;9.60;;;6.22;;
83728;SDS011;73707;56.480;-2.840;2024-03-06T00:29:20;9.60;;;6.70;;
83728;SDS011;73707;56.480;-2.840;2024-03-06T00:31:46;10.73;;;5.43;;
83728;SDS011;73707;56.480;-2.840;2024-03-06T00:34:12;12.25;;;6.95;;
83728;SDS011;73707;56.480;-2.840;2024-03-06T00:36:41;9.63;;;6.23;;
83728;SDS011;73707;56.480;-2.840;2024-03-06T00:39:08;11.48;;;7.22;;
83728;SDS011;73707;56.480;-2.840;2024-03-06T00:41:35;13.35;;;7.05;;
83728;SDS011;73707;56.480;-2.840;2024-03-06T00:44:01;8.77;;;6.25;;
83728;SDS011;73707;56.480;-2.840;2024-03-06T00:46:27;9.82;;;7.15;;
83728;SDS011;73707;56.480;-2.840;2024-03-06T00:48:53;12.95;;;7.35;;
83728;SDS011;73707;56.480;-2.840;2024-03-06T00:51:18;9.00;;;6.87;;
83728;SDS011;73707;56.480;-2.840;2024-03-06T00:53:44;11.87;;;7.17;;
83728;SDS011;73707;56.480;-2.840;2024-03-06T00:56:10;14.63;;;8.43;;
83728;SDS011;73707;56.480;-2.840;2024-03-06T00:58:36;12.77;;;8.50;;
83728;SDS011;73707;56.480;-2.840;2024-03-06T01:01:02;17.20;;;8.98;;
83728;SDS011;73707;56.480;-2.840;2024-03-06T01:03:28;11.93;;;7.10;;
83728;SDS011;73707;56.480;-2.840;2024-03-06T01:05:53;17.25;;;7.45;;
83728;SDS011;73707;56.480;-2.840;2024-03-06T01:08:21;13.65;;;7.57;;
83728;SDS011;73707;56.480;-2.840;2024-03-06T01:10:47;11.98;;;7.90;;
83728;SDS011;73707;56.480;-2.840;2024-03-06T01:13:12;11.05;;;7.60;;
83728;SDS011;73707;56.480;-2.840;2024-03-06T01:15:38;12.68;;;8.40;;
83728;SDS011;73707;56.480;-2.840;2024-03-06T01:18:04;10.40;;;6.93;;
83728;SDS011;73707;56.480;-2.840;2024-03-06T01:20:30;13.63;;;7.75;;
83728;SDS011;73707;56.480;-2.840;2024-03-06T01:22:55;15.67;;;8.30;;
83728;SDS011;73707;56.480;-2.840;2024-03-06T01:25:21;22.08;;;9.60;;
83728;SDS011;73707;56.480;-2.840;2024-03-06T01:27:49;26.33;;;9.93;;
83728;SDS011;73707;56.480;-2.840;2024-03-06T01:30:15;13.77;;;8.30;;
83728;SDS011;73707;56.480;-2.840;2024-03-06T01:32:41;16.88;;;7.80;;
83728;SDS011;73707;56.480;-2.840;2024-03-06T01:35:07;10.40;;;7.57;;
83728;SDS011;73707;56.480;-2.840;2024-03-06T01:37:32;12.35;;;7.50;;
83728;SDS011;73707;56.480;-2.840;2024-03-06T01:39:58;11.77;;;8.10;;
83728;SDS011;73707;56.480;-2.840;2024-03-06T01:42:24;14.73;;;8.68;;
83728;SDS011;73707;56.480;-2.840;2024-03-06T01:44:50;12.97;;;7.53;;
83728;SDS011;73707;56.480;-2.840;2024-03-06T01:47:15;18.33;;;8.55;;
83728;SDS011;73707;56.480;-2.840;2024-03-06T01:49:41;16.77;;;7.85;;
83728;SDS011;73707;56.480;-2.840;2024-03-06T01:52:08;16.15;;;8.10;;
83728;SDS011;73707;56.480;-2.840;2024-03-06T01:54:38;11.67;;;6.53;;
83728;SDS011;73707;56.480;-2.840;2024-03-06T01:57:04;16.17;;;7.57;;
83728;SDS011;73707;56.480;-2.840;2024-03-06T01:59:32;15.55;;;7.43;;
83728;SDS011;73707;56.480;-2.840;2024-03-06T02:01:57;21.48;;;9.35;;
83728;SDS011;73707;56.480;-2.840;2024-03-06T02:04:26;11.93;;;6.28;;
83728;SDS011;73707;56.480;-2.840;2024-03-06T02:06:53;11.43;;;6.47;;
83728;SDS011;73707;56.480;-2.840;2024-03-06T02:09:19;26.40;;;9.07;;
83728;SDS011;73707;56.480;-2.840;2024-03-06T02:11:45;18.42;;;8.15;;
83728;SDS011;73707;56.480;-2.840;2024-03-06T02:14:11;10.70;;;6.15;;
83728;SDS011;73707;56.480;-2.840;2024-03-06T02:16:37;11.65;;;6.53;;
83728;SDS011;73707;56.480;-2.840;2024-03-06T02:19:06;11.63;;;8.10;;
83728;SDS011;73707;56.480;-2.840;2024-03-06T02:21:33;15.13;;;7.30;;
83728;SDS011;73707;56.480;-2.840;2024-03-06T02:23:59;21.63;;;8.45;;
83728;SDS011;73707;56.480;-2.840;2024-03-06T02:26:24;22.60;;;8.10;;
83728;SDS011;73707;56.480;-2.840;2024-03-06T02:28:50;14.38;;;7.55;;
83728;SDS011;73707;56.480;-2.840;2024-03-06T02:31:18;13.45;;;7.40;;
83728;SDS011;73707;56.480;-2.840;2024-03-06T02:33:45;9.77;;;7.13;;
83728;SDS011;73707;56.480;-2.840;2024-03-06T02:36:13;16.47;;;7.20;;
83728;SDS011;73707;56.480;-2.840;2024-03-06T02:38:39;11.98;;;7.15;;
83728;SDS011;73707;56.480;-2.840;2024-03-06T02:41:05;19.63;;;6.83;;
83728;SDS011;73707;56.480;-2.840;2024-03-06T02:43:32;10.73;;;7.03;;
83728;SDS011;73707;56.480;-2.840;2024-03-06T02:45:58;10.32;;;5.95;;
83728;SDS011;73707;56.480;-2.840;2024-03-06T02:48:23;15.57;;;6.00;;
83728;SDS011;73707;56.480;-2.840;2024-03-06T02:50:49;11.27;;;6.28;;
83728;SDS011;73707;56.480;-2.840;2024-03-06T02:53:15;15.67;;;7.13;;
83728;SDS011;73707;56.480;-2.840;2024-03-06T02:55:41;18.42;;;8.25;;
83728;SDS011;73707;56.480;-2.840;2024-03-06T02:58:06;17.17;;;8.20;;
83728;SDS011;73707;56.480;-2.840;2024-03-06T03:00:32;15.60;;;7.70;;
83728;SDS011;73707;56.480;-2.840;2024-03-06T03:02:58;16.07;;;8.37;;
83728;SDS011;73707;56.480;-2.840;2024-03-06T03:05:23;15.30;;;8.43;;
83728;SDS011;73707;56.480;-2.840;2024-03-06T03:07:49;11.80;;;7.03;;
83728;SDS011;73707;56.480;-2.840;2024-03-06T03:10:15;17.30;;;9.75;;
83728;SDS011;73707;56.480;-2.840;2024-03-06T03:12:42;21.27;;;8.40;;
83728;SDS011;73707;56.480;-2.840;2024-03-06T03:15:08;23.73;;;8.35;;
83728;SDS011;73707;56.480;-2.840;2024-03-06T03:17:34;18.85;;;9.00;;
83728;SDS011;73707;56.480;-2.840;2024-03-06T03:20:00;21.40;;;9.05;;
83728;SDS011;73707;56.480;-2.840;2024-03-06T03:22:35;19.17;;;8.10;;
83728;SDS011;73707;56.480;-2.840;2024-03-06T03:25:01;15.05;;;7.50;;
83728;SDS011;73707;56.480;-2.840;2024-03-06T03:27:27;15.07;;;7.17;;
83728;SDS011;73707;56.480;-2.840;2024-03-06T03:29:53;13.68;;;6.78;;
83728;SDS011;73707;56.480;-2.840;2024-03-06T03:32:18;13.27;;;7.00;;
83728;SDS011;73707;56.480;-2.840;2024-03-06T03:34:44;19.83;;;8.15;;
83728;SDS011;73707;56.480;-2.840;2024-03-06T03:37:09;19.23;;;7.88;;
83728;SDS011;73707;56.480;-2.840;2024-03-06T03:39:35;18.60;;;7.83;;
83728;SDS011;73707;56.480;-2.840;2024-03-06T03:42:01;15.02;;;8.82;;
83728;SDS011;73707;56.480;-2.840;2024-03-06T03:44:27;14.93;;;7.90;;
83728;SDS011;73707;56.480;-2.840;2024-03-06T03:46:52;18.10;;;7.20;;
83728;SDS011;73707;56.480;-2.840;2024-03-06T03:49:18;16.97;;;7.70;;
83728;SDS011;73707;56.480;-2.840;2024-03-06T03:51:44;16.13;;;6.85;;
83728;SDS011;73707;56.480;-2.840;2024-03-06T03:54:09;14.77;;;6.90;;
83728;SDS011;73707;56.480;-2.840;2024-03-06T03:56:35;22.25;;;8.02;;
83728;SDS011;73707;56.480;-2.840;2024-03-06T03:59:01;21.37;;;8.30;;
83728;SDS011;73707;56.480;-2.840;2024-03-06T04:01:26;18.08;;;6.75;;
83728;SDS011;73707;56.480;-2.840;2024-03-06T04:03:52;18.50;;;7.70;;
83728;SDS011;73707;56.480;-2.840;2024-03-06T04:06:18;16.45;;;7.72;;
83728;SDS011;73707;56.480;-2.840;2024-03-06T04:08:43;12.75;;;7.53;;
83728;SDS011;73707;56.480;-2.840;2024-03-06T04:11:09;11.77;;;6.63;;
83728;SDS011;73707;56.480;-2.840;2024-03-06T04:13:38;13.95;;;8.25;;
83728;SDS011;73707;56.480;-2.840;2024-03-06T04:16:04;18.05;;;8.18;;
83728;SDS011;73707;56.480;-2.840;2024-03-06T04:18:33;14.70;;;6.15;;
83728;SDS011;73707;56.480;-2.840;2024-03-06T04:21:02;12.20;;;7.28;;
83728;SDS011;73707;56.480;-2.840;2024-03-06T04:23:29;15.48;;;7.15;;
83728;SDS011;73707;56.480;-2.840;2024-03-06T04:25:55;15.98;;;7.65;;
83728;SDS011;73707;56.480;-2.840;2024-03-06T04:28:20;23.40;;;8.17;;
83728;SDS011;73707;56.480;-2.840;2024-03-06T04:30:46;18.83;;;7.85;;
83728;SDS011;73707;56.480;-2.840;2024-03-06T04:33:12;19.27;;;8.10;;
83728;SDS011;73707;56.480;-2.840;2024-03-06T04:35:40;19.23;;;8.27;;
83728;SDS011;73707;56.480;-2.840;2024-03-06T04:38:06;15.00;;;8.55;;
83728;SDS011;73707;56.480;-2.840;2024-03-06T04:40:32;21.80;;;8.27;;
83728;SDS011;73707;56.480;-2.840;2024-03-06T04:42:59;14.30;;;8.02;;
83728;SDS011;73707;56.480;-2.840;2024-03-06T04:45:27;15.70;;;8.02;;
83728;SDS011;73707;56.480;-2.840;2024-03-06T04:47:53;28.17;;;9.32;;
83728;SDS011;73707;56.480;-2.840;2024-03-06T04:50:19;21.90;;;8.80;;
83728;SDS011;73707;56.480;-2.840;2024-03-06T04:52:45;21.97;;;8.70;;
83728;SDS011;73707;56.480;-2.840;2024-03-06T04:55:11;15.80;;;7.78;;
83728;SDS011;73707;56.480;-2.840;2024-03-06T04:57:38;19.45;;;8.40;;
83728;SDS011;73707;56.480;-2.840;2024-03-06T05:00:05;14.32;;;7.40;;
83728;SDS011;73707;56.480;-2.840;2024-03-06T05:02:33;14.38;;;6.43;;
83728;SDS011;73707;56.480;-2.840;2024-03-06T05:05:00;19.30;;;7.28;;
83728;SDS011;73707;56.480;-2.840;2024-03-06T05:07:27;24.20;;;8.30;;
83728;SDS011;73707;56.480;-2.840;2024-03-06T05:09:54;18.02;;;7.07;;
83728;SDS011;73707;56.480;-2.840;2024-03-06T05:12:21;16.00;;;7.07;;
83728;SDS011;73707;56.480;-2.840;2024-03-06T05:14:46;17.70;;;7.45;;
83728;SDS011;73707;56.480;-2.840;2024-03-06T05:17:12;15.65;;;7.95;;
83728;SDS011;73707;56.480;-2.840;2024-03-06T05:19:38;16.50;;;7.97;;
83728;SDS011;73707;56.480;-2.840;2024-03-06T05:22:03;27.63;;;8.50;;
83728;SDS011;73707;56.480;-2.840;2024-03-06T05:24:30;18.90;;;7.53;;
83728;SDS011;73707;56.480;-2.840;2024-03-06T05:26:56;14.77;;;8.25;;
83728;SDS011;73707;56.480;-2.840;2024-03-06T05:29:21;18.83;;;8.50;;
83728;SDS011;73707;56.480;-2.840;2024-03-06T05:31:47;16.88;;;8.82;;
83728;SDS011;73707;56.480;-2.840;2024-03-06T05:34:13;16.70;;;8.50;;
83728;SDS011;73707;56.480;-2.840;2024-03-06T05:36:38;19.25;;;9.13;;
83728;SDS011;73707;56.480;-2.840;2024-03-06T05:39:04;13.77;;;8.37;;
83728;SDS011;73707;56.480;-2.840;2024-03-06T05:41:37;18.00;;;7.82;;
83728;SDS011;73707;56.480;-2.840;2024-03-06T05:44:07;20.77;;;9.07;;
83728;SDS011;73707;56.480;-2.840;2024-03-06T05:46:33;16.88;;;8.52;;
83728;SDS011;73707;56.480;-2.840;2024-03-06T05:48:58;14.85;;;7.97;;
83728;SDS011;73707;56.480;-2.840;2024-03-06T05:51:25;12.20;;;7.00;;
83728;SDS011;73707;56.480;-2.840;2024-03-06T05:53:51;23.45;;;8.15;;
83728;SDS011;73707;56.480;-2.840;2024-03-06T05:56:17;20.23;;;7.70;;
83728;SDS011;73707;56.480;-2.840;2024-03-06T05:58:43;13.48;;;6.55;;
83728;SDS011;73707;56.480;-2.840;2024-03-06T06:01:11;10.85;;;7.25;;
83728;SDS011;73707;56.480;-2.840;2024-03-06T06:03:43;19.60;;;7.80;;
83728;SDS011;73707;56.480;-2.840;2024-03-06T06:06:09;19.92;;;7.53;;
83728;SDS011;73707;56.480;-2.840;2024-03-06T06:08:35;13.83;;;7.13;;
83728;SDS011;73707;56.480;-2.840;2024-03-06T06:11:01;19.92;;;7.22;;
83728;SDS011;73707;56.480;-2.840;2024-03-06T06:13:28;21.98;;;7.55;;
83728;SDS011;73707;56.480;-2.840;2024-03-06T06:15:54;13.38;;;7.07;;
83728;SDS011;73707;56.480;-2.840;2024-03-06T06:18:20;14.00;;;7.23;;
83728;SDS011;73707;56.480;-2.840;2024-03-06T06:20:45;13.65;;;6.43;;
83728;SDS011;73707;56.480;-2.840;2024-03-06T06:23:11;10.38;;;5.90;;
83728;SDS011;73707;56.480;-2.840;2024-03-06T06:25:37;13.75;;;6.90;;
83728;SDS011;73707;56.480;-2.840;2024-03-06T06:28:03;13.47;;;6.87;;
83728;SDS011;73707;56.480;-2.840;2024-03-06T06:30:29;18.20;;;6.90;;
83728;SDS011;73707;56.480;-2.840;2024-03-06T06:32:55;15.90;;;6.43;;
83728;SDS011;73707;56.480;-2.840;2024-03-06T06:35:20;17.07;;;7.10;;
83728;SDS011;73707;56.480;-2.840;2024-03-06T06:37:47;13.10;;;6.10;;
83728;SDS011;73707;56.480;-2.840;2024-03-06T06:40:13;14.07;;;6.30;;
83728;SDS011;73707;56.480;-2.840;2024-03-06T06:42:43;14.30;;;6.53;;
83728;SDS011;73707;56.480;-2.840;2024-03-06T06:45:14;10.52;;;6.30;;
83728;SDS011;73707;56.480;-2.840;2024-03-06T06:47:40;12.93;;;7.07;;
83728;SDS011;73707;56.480;-2.840;2024-03-06T06:50:06;14.35;;;6.85;;
83728;SDS011;73707;56.480;-2.840;2024-03-06T06:52:34;17.27;;;6.70;;
83728;SDS011;73707;56.480;-2.840;2024-03-06T06:55:00;15.00;;;6.57;;
83728;SDS011;73707;56.480;-2.840;2024-03-06T06:57:26;17.13;;;7.65;;
83728;SDS011;73707;56.480;-2.840;2024-03-06T06:59:51;14.03;;;7.53;;
83728;SDS011;73707;56.480;-2.840;2024-03-06T07:02:17;19.38;;;7.65;;
83728;SDS011;73707;56.480;-2.840;2024-03-06T07:04:43;20.35;;;7.35;;
83728;SDS011;73707;56.480;-2.840;2024-03-06T07:07:09;15.75;;;8.95;;
83728;SDS011;73707;56.480;-2.840;2024-03-06T07:09:35;19.10;;;9.35;;
83728;SDS011;73707;56.480;-2.840;2024-03-06T07:12:01;20.00;;;8.83;;
83728;SDS011;73707;56.480;-2.840;2024-03-06T07:14:27;17.23;;;8.38;;
83728;SDS011;73707;56.480;-2.840;2024-03-06T07:16:53;14.07;;;8.40;;
83728;SDS011;73707;56.480;-2.840;2024-03-06T07:19:19;16.00;;;8.37;;
83728;SDS011;73707;56.480;-2.840;2024-03-06T07:21:45;16.05;;;8.57;;
83728;SDS011;73707;56.480;-2.840;2024-03-06T07:24:10;13.65;;;8.25;;
83728;SDS011;73707;56.480;-2.840;2024-03-06T07:26:36;13.48;;;9.95;;
83728;SDS011;73707;56.480;-2.840;2024-03-06T07:29:02;20.25;;;9.75;;
83728;SDS011;73707;56.480;-2.840;2024-03-06T07:31:28;26.92;;;9.45;;
83728;SDS011;73707;56.480;-2.840;2024-03-06T07:33:54;17.63;;;10.33;;
83728;SDS011;73707;56.480;-2.840;2024-03-06T07:36:20;27.25;;;10.73;;
83728;SDS011;73707;56.480;-2.840;2024-03-06T07:38:47;19.75;;;10.82;;
83728;SDS011;73707;56.480;-2.840;2024-03-06T07:41:12;18.90;;;11.35;;
83728;SDS011;73707;56.480;-2.840;2024-03-06T07:43:38;19.33;;;11.88;;
83728;SDS011;73707;56.480;-2.840;2024-03-06T07:46:04;29.48;;;14.10;;
83728;SDS011;73707;56.480;-2.840;2024-03-06T07:48:36;21.23;;;14.15;;
83728;SDS011;73707;56.480;-2.840;2024-03-06T07:51:02;29.92;;;14.82;;
83728;SDS011;73707;56.480;-2.840;2024-03-06T07:53:29;27.67;;;15.95;;
83728;SDS011;73707;56.480;-2.840;2024-03-06T07:55:55;32.50;;;15.30;;
83728;SDS011;73707;56.480;-2.840;2024-03-06T07:58:20;23.55;;;13.60;;
83728;SDS011;73707;56.480;-2.840;2024-03-06T08:00:46;29.47;;;15.57;;
83728;SDS011;73707;56.480;-2.840;2024-03-06T08:03:12;31.85;;;16.65;;
83728;SDS011;73707;56.480;-2.840;2024-03-06T08:05:38;45.22;;;20.85;;
83728;SDS011;73707;56.480;-2.840;2024-03-06T08:08:04;31.25;;;17.48;;
83728;SDS011;73707;56.480;-2.840;2024-03-06T08:10:30;42.70;;;18.88;;
83728;SDS011;73707;56.480;-2.840;2024-03-06T08:12:56;23.17;;;15.90;;
83728;SDS011;73707;56.480;-2.840;2024-03-06T08:15:22;38.60;;;19.03;;
83728;SDS011;73707;56.480;-2.840;2024-03-06T08:17:48;28.20;;;14.80;;
83728;SDS011;73707;56.480;-2.840;2024-03-06T08:20:14;24.25;;;14.75;;
83728;SDS011;73707;56.480;-2.840;2024-03-06T08:22:41;28.77;;;14.88;;
83728;SDS011;73707;56.480;-2.840;2024-03-06T08:25:07;26.10;;;14.82;;
83728;SDS011;73707;56.480;-2.840;2024-03-06T08:27:34;37.07;;;16.10;;
83728;SDS011;73707;56.480;-2.840;2024-03-06T08:30:02;35.65;;;16.40;;
83728;SDS011;73707;56.480;-2.840;2024-03-06T08:32:29;29.48;;;16.73;;
83728;SDS011;73707;56.480;-2.840;2024-03-06T08:35:10;29.83;;;15.13;;
83728;SDS011;73707;56.480;-2.840;2024-03-06T08:37:39;31.63;;;15.77;;
83728;SDS011;73707;56.480;-2.840;2024-03-06T08:40:08;37.13;;;16.55;;
83728;SDS011;73707;56.480;-2.840;2024-03-06T08:42:40;25.75;;;14.77;;
83728;SDS011;73707;56.480;-2.840;2024-03-06T08:45:07;29.70;;;15.57;;
83728;SDS011;73707;56.480;-2.840;2024-03-06T08:47:33;36.03;;;17.05;;
83728;SDS011;73707;56.480;-2.840;2024-03-06T08:49:59;37.03;;;16.42;;
83728;SDS011;73707;56.480;-2.840;2024-03-06T08:52:25;24.58;;;16.50;;
83728;SDS011;73707;56.480;-2.840;2024-03-06T08:54:51;32.13;;;16.80;;
83728;SDS011;73707;56.480;-2.840;2024-03-06T08:57:16;25.40;;;15.37;;
83728;SDS011;73707;56.480;-2.840;2024-03-06T08:59:42;35.50;;;17.63;;
83728;SDS011;73707;56.480;-2.840;2024-03-06T09:02:18;42.33;;;17.48;;
83728;SDS011;73707;56.480;-2.840;2024-03-06T09:04:47;34.90;;;17.25;;
83728;SDS011;73707;56.480;-2.840;2024-03-06T09:07:13;44.15;;;20.33;;
83728;SDS011;73707;56.480;-2.840;2024-03-06T09:09:39;36.42;;;19.98;;
83728;SDS011;73707;56.480;-2.840;2024-03-06T09:12:06;42.60;;;18.90;;
83728;SDS011;73707;56.480;-2.840;2024-03-06T09:14:35;37.97;;;19.38;;
83728;SDS011;73707;56.480;-2.840;2024-03-06T09:17:04;36.20;;;20.95;;
83728;SDS011;73707;56.480;-2.840;2024-03-06T09:19:31;42.17;;;19.20;;
83728;SDS011;73707;56.480;-2.840;2024-03-06T09:21:58;39.17;;;17.95;;
83728;SDS011;73707;56.480;-2.840;2024-03-06T09:24:24;40.00;;;16.60;;
83728;SDS011;73707;56.480;-2.840;2024-03-06T09:26:51;36.05;;;17.15;;
83728;SDS011;73707;56.480;-2.840;2024-03-06T09:29:17;38.22;;;17.17;;
83728;SDS011;73707;56.480;-2.840;2024-03-06T09:31:42;33.13;;;19.60;;
83728;SDS011;73707;56.480;-2.840;2024-03-06T09:34:08;29.85;;;17.73;;
83728;SDS011;73707;56.480;-2.840;2024-03-06T09:36:40;28.20;;;15.43;;
83728;SDS011;73707;56.480;-2.840;2024-03-06T09:39:10;31.65;;;14.50;;
83728;SDS011;73707;56.480;-2.840;2024-03-06T09:41:42;27.80;;;15.27;;
83728;SDS011;73707;56.480;-2.840;2024-03-06T09:44:09;22.85;;;13.50;;
83728;SDS011;73707;56.480;-2.840;2024-03-06T09:46:35;23.40;;;13.73;;
83728;SDS011;73707;56.480;-2.840;2024-03-06T09:49:02;37.30;;;17.95;;
83728;SDS011;73707;56.480;-2.840;2024-03-06T09:51:28;32.20;;;17.40;;
83728;SDS011;73707;56.480;-2.840;2024-03-06T09:53:54;32.45;;;16.08;;
83728;SDS011;73707;56.480;-2.840;2024-03-06T09:56:20;29.10;;;14.77;;
83728;SDS011;73707;56.480;-2.840;2024-03-06T09:58:46;40.47;;;16.33;;
83728;SDS011;73707;56.480;-2.840;2024-03-06T10:01:12;31.83;;;16.35;;
83728;SDS011;73707;56.480;-2.840;2024-03-06T10:03:39;23.63;;;15.85;;
83728;SDS011;73707;56.480;-2.840;2024-03-06T10:06:08;27.45;;;14.38;;
83728;SDS011;73707;56.480;-2.840;2024-03-06T10:08:35;25.38;;;13.88;;
83728;SDS011;73707;56.480;-2.840;2024-03-06T10:11:02;20.48;;;13.70;;
83728;SDS011;73707;56.480;-2.840;2024-03-06T10:13:28;21.73;;;13.68;;
83728;SDS011;73707;56.480;-2.840;2024-03-06T10:16:01;28.00;;;14.03;;
83728;SDS011;73707;56.480;-2.840;2024-03-06T10:18:28;25.58;;;13.30;;
83728;SDS011;73707;56.480;-2.840;2024-03-06T10:20:55;23.20;;;13.48;;
83728;SDS011;73707;56.480;-2.840;2024-03-06T10:23:22;23.63;;;13.23;;
83728;SDS011;73707;56.480;-2.840;2024-03-06T10:25:48;22.05;;;12.82;;
83728;SDS011;73707;56.480;-2.840;2024-03-06T10:28:20;29.35;;;13.20;;
83728;SDS011;73707;56.480;-2.840;2024-03-06T10:30:48;24.23;;;12.53;;
83728;SDS011;73707;56.480;-2.840;2024-03-06T10:33:15;24.33;;;13.85;;
83728;SDS011;73707;56.480;-2.840;2024-03-06T10:35:44;29.48;;;14.68;;
83728;SDS011;73707;56.480;-2.840;2024-03-06T10:38:11;26.67;;;11.68;;
83728;SDS011;73707;56.480;-2.840;2024-03-06T10:40:39;23.48;;;12.02;;
83728;SDS011;73707;56.480;-2.840;2024-03-06T10:43:06;26.67;;;11.20;;
83728;SDS011;73707;56.480;-2.840;2024-03-06T10:48:08;15.82;;;10.75;;
83728;SDS011;73707;56.480;-2.840;2024-03-06T10:50:40;21.73;;;12.15;;
83728;SDS011;73707;56.480;-2.840;2024-03-06T10:53:10;21.60;;;11.63;;
83728;SDS011;73707;56.480;-2.840;2024-03-06T10:55:40;21.35;;;10.90;;
83728;SDS011;73707;56.480;-2.840;2024-03-06T10:58:09;23.45;;;11.60;;
83728;SDS011;73707;56.480;-2.840;2024-03-06T11:00:39;17.38;;;11.38;;
83728;SDS011;73707;56.480;-2.840;2024-03-06T11:03:11;18.92;;;11.07;;
83728;SDS011;73707;56.480;-2.840;2024-03-06T11:05:37;26.42;;;12.35;;
83728;SDS011;73707;56.480;-2.840;2024-03-06T11:08:08;20.00;;;11.77;;
83728;SDS011;73707;56.480;-2.840;2024-03-06T11:10:36;23.27;;;11.40;;
83728;SDS011;73707;56.480;-2.840;2024-03-06T11:13:22;24.95;;;11.52;;
83728;SDS011;73707;56.480;-2.840;2024-03-06T11:15:51;14.35;;;10.95;;
83728;SDS011;73707;56.480;-2.840;2024-03-06T11:20:58;17.60;;;11.48;;
83728;SDS011;73707;56.480;-2.840;2024-03-06T11:23:24;19.67;;;10.88;;
83728;SDS011;73707;56.480;-2.840;2024-03-06T11:28:16;22.30;;;10.70;;
83728;SDS011;73707;56.480;-2.840;2024-03-06T11:30:58;21.70;;;10.25;;
83728;SDS011;73707;56.480;-2.840;2024-03-06T11:33:43;13.93;;;9.37;;
83728;SDS011;73707;56.480;-2.840;2024-03-06T11:39:04;16.65;;;9.73;;
83728;SDS011;73707;56.480;-2.840;2024-03-06T11:44:12;22.05;;;9.50;;
83728;SDS011;73707;56.480;-2.840;2024-03-06T11:46:43;21.73;;;9.73;;
83728;SDS011;73707;56.480;-2.840;2024-03-06T11:49:14;22.42;;;9.88;;
83728;SDS011;73707;56.480;-2.840;2024-03-06T11:51:42;27.20;;;10.45;;
83728;SDS011;73707;56.480;-2.840;2024-03-06T11:54:10;19.10;;;10.05;;
83728;SDS011;73707;56.480;-2.840;2024-03-06T11:56:41;18.52;;;10.13;;
83728;SDS011;73707;56.480;-2.840;2024-03-06T11:59:09;18.50;;;9.88;;
83728;SDS011;73707;56.480;-2.840;2024-03-06T12:01:36;19.50;;;10.38;;
83728;SDS011;73707;56.480;-2.840;2024-03-06T12:04:02;19.33;;;11.30;;
83728;SDS011;73707;56.480;-2.840;2024-03-06T12:06:29;27.67;;;11.65;;
83728;SDS011;73707;56.480;-2.840;2024-03-06T12:08:57;25.58;;;11.07;;
83728;SDS011;73707;56.480;-2.840;2024-03-06T12:11:23;29.50;;;11.40;;
83728;SDS011;73707;56.480;-2.840;2024-03-06T12:13:53;27.50;;;11.30;;
83728;SDS011;73707;56.480;-2.840;2024-03-06T12:16:20;22.50;;;11.07;;
83728;SDS011;73707;56.480;-2.840;2024-03-06T12:18:46;22.73;;;11.85;;
83728;SDS011;73707;56.480;-2.840;2024-03-06T12:21:19;28.97;;;11.37;;
83728;SDS011;73707;56.480;-2.840;2024-03-06T12:23:44;19.65;;;10.95;;
83728;SDS011;73707;56.480;-2.840;2024-03-06T12:26:10;28.33;;;11.30;;
83728;SDS011;73707;56.480;-2.840;2024-03-06T12:28:39;25.73;;;11.00;;
83728;SDS011;73707;56.480;-2.840;2024-03-06T12:31:05;16.83;;;10.77;;
83728;SDS011;73707;56.480;-2.840;2024-03-06T12:33:32;19.65;;;10.00;;
83728;SDS011;73707;56.480;-2.840;2024-03-06T12:36:04;19.15;;;10.73;;
83728;SDS011;73707;56.480;-2.840;2024-03-06T12:38:32;20.60;;;11.48;;
83728;SDS011;73707;56.480;-2.840;2024-03-06T12:40:58;22.73;;;11.45;;
83728;SDS011;73707;56.480;-2.840;2024-03-06T12:43:25;16.60;;;10.68;;
83728;SDS011;73707;56.480;-2.840;2024-03-06T12:45:51;18.10;;;10.77;;
83728;SDS011;73707;56.480;-2.840;2024-03-06T12:48:21;23.83;;;10.97;;
83728;SDS011;73707;56.480;-2.840;2024-03-06T12:50:47;22.40;;;10.93;;
83728;SDS011;73707;56.480;-2.840;2024-03-06T12:53:17;21.95;;;11.05;;
83728;SDS011;73707;56.480;-2.840;2024-03-06T12:55:44;21.80;;;11.88;;
83728;SDS011;73707;56.480;-2.840;2024-03-06T12:58:11;25.50;;;11.05;;
83728;SDS011;73707;56.480;-2.840;2024-03-06T13:00:37;29.40;;;11.00;;
83728;SDS011;73707;56.480;-2.840;2024-03-06T13:03:03;29.92;;;12.05;;
83728;SDS011;73707;56.480;-2.840;2024-03-06T13:05:30;23.63;;;10.53;;
83728;SDS011;73707;56.480;-2.840;2024-03-06T13:07:56;24.48;;;11.52;;
83728;SDS011;73707;56.480;-2.840;2024-03-06T13:10:22;23.93;;;11.67;;
83728;SDS011;73707;56.480;-2.840;2024-03-06T13:12:48;32.03;;;11.77;;
83728;SDS011;73707;56.480;-2.840;2024-03-06T13:15:13;22.83;;;11.63;;
83728;SDS011;73707;56.480;-2.840;2024-03-06T13:17:39;31.25;;;11.85;;
83728;SDS011;73707;56.480;-2.840;2024-03-06T13:20:05;21.20;;;10.13;;
83728;SDS011;73707;56.480;-2.840;2024-03-06T13:22:36;15.88;;;9.40;;
83728;SDS011;73707;56.480;-2.840;2024-03-06T13:25:02;24.50;;;10.20;;
83728;SDS011;73707;56.480;-2.840;2024-03-06T13:27:30;24.67;;;9.82;;
83728;SDS011;73707;56.480;-2.840;2024-03-06T13:29:55;24.40;;;9.88;;
83728;SDS011;73707;56.480;-2.840;2024-03-06T13:32:21;27.23;;;10.45;;
83728;SDS011;73707;56.480;-2.840;2024-03-06T13:34:47;19.33;;;9.30;;
83728;SDS011;73707;56.480;-2.840;2024-03-06T13:37:13;17.98;;;8.45;;
83728;SDS011;73707;56.480;-2.840;2024-03-06T13:39:39;19.65;;;9.15;;
83728;SDS011;73707;56.480;-2.840;2024-03-06T13:42:05;24.67;;;9.93;;
83728;SDS011;73707;56.480;-2.840;2024-03-06T13:44:33;22.25;;;10.00;;
83728;SDS011;73707;56.480;-2.840;2024-03-06T13:47:02;19.38;;;9.52;;
83728;SDS011;73707;56.480;-2.840;2024-03-06T13:52:00;20.15;;;10.43;;
83728;SDS011;73707;56.480;-2.840;2024-03-06T13:54:26;23.07;;;9.07;;
83728;SDS011;73707;56.480;-2.840;2024-03-06T13:56:51;22.60;;;8.68;;
83728;SDS011;73707;56.480;-2.840;2024-03-06T13:59:21;20.83;;;8.57;;
83728;SDS011;73707;56.480;-2.840;2024-03-06T14:01:46;26.20;;;10.30;;
83728;SDS011;73707;56.480;-2.840;2024-03-06T14:04:14;24.38;;;11.05;;
83728;SDS011;73707;56.480;-2.840;2024-03-06T14:06:39;16.42;;;9.98;;
83728;SDS011;73707;56.480;-2.840;2024-03-06T14:09:05;26.73;;;10.70;;
83728;SDS011;73707;56.480;-2.840;2024-03-06T14:11:32;25.70;;;10.98;;
83728;SDS011;73707;56.480;-2.840;2024-03-06T14:14:00;21.80;;;11.45;;
83728;SDS011;73707;56.480;-2.840;2024-03-06T14:16:26;24.00;;;10.97;;
83728;SDS011;73707;56.480;-2.840;2024-03-06T14:18:52;26.08;;;10.75;;
83728;SDS011;73707;56.480;-2.840;2024-03-06T14:21:18;23.52;;;11.10;;
83728;SDS011;73707;56.480;-2.840;2024-03-06T14:23:44;22.77;;;11.50;;
83728;SDS011;73707;56.480;-2.840;2024-03-06T14:26:09;17.50;;;9.95;;
83728;SDS011;73707;56.480;-2.840;2024-03-06T14:28:35;19.75;;;9.65;;